createdAt,value
2022-12-15T00:00:13.261Z,88.40
2022-12-15T00:01:13.526Z,88.60
2022-12-15T00:02:13.701Z,88.50
2022-12-15T00:03:14.165Z,88.00
2022-12-15T00:04:13.288Z,88.20
2022-12-15T00:05:13.244Z,88.00
2022-12-15T00:06:13.335Z,88.00
2022-12-15T00:07:13.327Z,88.50
2022-12-15T00:08:13.179Z,88.30
2022-12-15T00:09:14.563Z,88.40
2022-12-15T00:10:13.518Z,88.30
2022-12-15T00:11:13.721Z,88.30
2022-12-15T00:12:13.761Z,88.20
2022-12-15T00:13:13.629Z,88.00
2022-12-15T00:14:13.726Z,88.30
2022-12-15T00:15:13.675Z,88.50
2022-12-15T00:16:13.800Z,88.20
2022-12-15T00:17:13.911Z,88.20
2022-12-15T00:18:12.776Z,88.10
2022-12-15T00:19:13.659Z,87.90
2022-12-15T00:20:13.740Z,88.00
2022-12-15T00:21:13.749Z,88.00
2022-12-15T00:22:18.705Z,87.90
2022-12-15T00:23:13.995Z,87.90
2022-12-15T00:24:13.068Z,87.80
2022-12-15T00:25:13.302Z,87.40
2022-12-15T00:26:13.579Z,87.20
2022-12-15T00:27:13.601Z,87.20
2022-12-15T00:28:13.826Z,87.20
2022-12-15T00:29:14.115Z,87.80
2022-12-15T00:30:13.363Z,87.90
2022-12-15T00:31:13.487Z,87.40
2022-12-15T00:32:13.499Z,87.70
2022-12-15T00:33:13.582Z,87.70
2022-12-15T00:34:14.374Z,87.20
2022-12-15T00:35:13.541Z,87.60
2022-12-15T00:36:14.078Z,87.70
2022-12-15T00:37:13.292Z,87.40
2022-12-15T00:38:13.240Z,87.50
2022-12-15T00:39:13.279Z,87.70
2022-12-15T00:40:13.248Z,87.60
2022-12-15T00:41:13.572Z,87.70
2022-12-15T00:42:13.816Z,87.80
2022-12-15T00:43:13.846Z,87.80
2022-12-15T00:44:18.916Z,88.00
2022-12-15T00:45:13.488Z,88.10
2022-12-15T00:46:13.587Z,88.10
2022-12-15T00:47:13.793Z,88.30
2022-12-15T00:48:13.656Z,88.30
2022-12-15T00:49:13.555Z,88.40
2022-12-15T00:50:13.473Z,88.50
2022-12-15T00:51:13.454Z,88.70
2022-12-15T00:52:13.563Z,88.50
2022-12-15T00:53:13.566Z,88.50
2022-12-15T00:54:17.855Z,88.60
2022-12-15T00:55:13.348Z,88.80
2022-12-15T00:56:13.230Z,88.70
2022-12-15T00:57:13.194Z,88.80
2022-12-15T00:58:13.151Z,88.90
2022-12-15T00:59:13.131Z,88.70
2022-12-15T01:00:13.065Z,88.40
2022-12-15T01:01:13.049Z,88.10
2022-12-15T01:02:13.411Z,88.00
2022-12-15T01:03:13.720Z,87.90
2022-12-15T01:04:13.866Z,87.80
2022-12-15T01:05:12.914Z,87.50
2022-12-15T01:06:12.866Z,87.80
2022-12-15T01:07:13.816Z,87.90
2022-12-15T01:08:14.158Z,88.10
2022-12-15T01:09:13.043Z,88.50
2022-12-15T01:10:12.965Z,88.50
2022-12-15T01:11:13.368Z,88.70
2022-12-15T01:12:13.354Z,88.30
2022-12-15T01:13:13.313Z,88.40
2022-12-15T01:14:13.226Z,88.70
2022-12-15T01:15:13.361Z,88.40
2022-12-15T01:16:13.397Z,88.20
2022-12-15T01:17:13.551Z,88.00
2022-12-15T01:18:13.489Z,88.00
2022-12-15T01:19:13.503Z,87.50
2022-12-15T01:20:13.456Z,87.20
2022-12-15T01:21:13.385Z,87.10
2022-12-15T01:22:13.239Z,87.40
2022-12-15T01:23:13.168Z,87.80
2022-12-15T01:24:13.519Z,88.10
2022-12-15T01:25:14.651Z,88.30
2022-12-15T01:26:13.635Z,88.10
2022-12-15T01:27:13.531Z,87.80
2022-12-15T01:28:13.611Z,87.70
2022-12-15T01:29:13.544Z,87.20
2022-12-15T01:30:13.674Z,87.00
2022-12-15T01:31:13.687Z,86.90
2022-12-15T01:32:13.771Z,87.20
2022-12-15T01:33:13.746Z,87.10
2022-12-15T01:34:13.982Z,87.30
2022-12-15T01:35:12.941Z,87.30
2022-12-15T01:36:13.022Z,87.10
2022-12-15T01:37:13.043Z,87.40
2022-12-15T01:38:13.035Z,87.40
2022-12-15T01:39:12.966Z,87.20
2022-12-15T01:40:13.100Z,86.90
2022-12-15T01:41:13.154Z,86.90
2022-12-15T01:42:13.045Z,87.10
2022-12-15T01:43:13.153Z,87.10
2022-12-15T01:44:13.083Z,87.10
2022-12-15T01:45:12.985Z,87.10
2022-12-15T01:46:13.021Z,87.10
2022-12-15T01:47:13.177Z,87.10
2022-12-15T01:48:13.223Z,87.20
2022-12-15T01:49:13.484Z,86.80
2022-12-15T01:50:13.553Z,86.60
2022-12-15T01:51:13.457Z,86.50
2022-12-15T01:52:13.607Z,86.60
2022-12-15T01:53:13.778Z,86.70
2022-12-15T01:54:13.749Z,86.40
2022-12-15T01:55:13.643Z,86.20
2022-12-15T01:56:14.007Z,86.20
2022-12-15T01:57:13.229Z,86.30
2022-12-15T01:58:13.114Z,86.10
2022-12-15T01:59:13.091Z,85.90
2022-12-15T02:00:13.023Z,86.00
2022-12-15T02:01:13.134Z,85.80
2022-12-15T02:02:13.199Z,85.40
2022-12-15T02:03:13.213Z,85.00
2022-12-15T02:04:13.187Z,85.20
2022-12-15T02:05:13.314Z,85.80
2022-12-15T02:06:13.314Z,85.70
2022-12-15T02:07:13.204Z,85.60
2022-12-15T02:08:13.349Z,85.80
2022-12-15T02:09:13.432Z,85.40
2022-12-15T02:10:13.525Z,85.40
2022-12-15T02:11:13.351Z,85.20
2022-12-15T02:12:13.628Z,85.00
2022-12-15T02:13:13.700Z,85.10
2022-12-15T02:14:13.565Z,85.30
2022-12-15T02:15:13.763Z,85.30
2022-12-15T02:16:13.644Z,85.50
2022-12-15T02:17:13.749Z,85.40
2022-12-15T02:18:13.671Z,85.10
2022-12-15T02:19:13.631Z,85.00
2022-12-15T02:20:13.567Z,85.10
2022-12-15T02:21:13.583Z,84.90
2022-12-15T02:22:13.609Z,85.30
2022-12-15T02:23:14.145Z,85.30
2022-12-15T02:24:13.255Z,85.40
2022-12-15T02:25:13.362Z,85.20
2022-12-15T02:26:13.367Z,85.20
2022-12-15T02:27:13.840Z,85.10
2022-12-15T02:28:14.353Z,85.30
2022-12-15T02:29:13.457Z,85.40
2022-12-15T02:30:13.675Z,85.30
2022-12-15T02:31:13.702Z,85.20
2022-12-15T02:32:13.669Z,85.30
2022-12-15T02:33:13.523Z,85.30
2022-12-15T02:34:13.408Z,85.10
2022-12-15T02:35:13.398Z,84.80
2022-12-15T02:36:13.374Z,84.50
2022-12-15T02:37:13.211Z,84.30
2022-12-15T02:38:13.203Z,84.50
2022-12-15T02:39:13.091Z,84.40
2022-12-15T02:40:13.220Z,84.40
2022-12-15T02:41:13.304Z,84.40
2022-12-15T02:42:13.261Z,84.20
2022-12-15T02:43:13.260Z,84.20
2022-12-15T02:44:13.574Z,84.30
2022-12-15T02:45:13.545Z,84.00
2022-12-15T02:46:13.625Z,84.00
2022-12-15T02:47:13.544Z,83.80
2022-12-15T02:48:13.674Z,84.10
2022-12-15T02:49:13.940Z,83.80
2022-12-15T02:50:12.856Z,83.50
2022-12-15T02:51:19.051Z,83.70
2022-12-15T02:52:12.874Z,83.70
2022-12-15T02:53:13.840Z,83.80
2022-12-15T02:54:13.951Z,83.70
2022-12-15T02:55:13.092Z,83.60
2022-12-15T02:56:13.043Z,83.30
2022-12-15T02:57:12.976Z,83.20
2022-12-15T02:58:13.137Z,83.20
2022-12-15T02:59:13.194Z,83.20
2022-12-15T03:00:13.132Z,83.70
2022-12-15T03:01:13.499Z,84.10
2022-12-15T03:02:13.870Z,84.20
2022-12-15T03:03:13.060Z,84.50
2022-12-15T03:04:13.388Z,84.40
2022-12-15T03:05:13.610Z,84.40
2022-12-15T03:06:13.624Z,84.20
2022-12-15T03:07:13.527Z,84.20
2022-12-15T03:08:13.366Z,84.20
2022-12-15T03:09:13.494Z,84.10
2022-12-15T03:10:13.370Z,83.80
2022-12-15T03:11:13.291Z,83.70
2022-12-15T03:12:13.195Z,83.50
2022-12-15T03:13:13.410Z,83.70
2022-12-15T03:14:13.241Z,83.60
2022-12-15T03:15:13.532Z,83.60
2022-12-15T03:16:14.165Z,83.50
2022-12-15T03:17:13.282Z,83.60
2022-12-15T03:18:13.416Z,83.40
2022-12-15T03:19:13.532Z,83.20
2022-12-15T03:20:13.501Z,83.00
2022-12-15T03:21:13.643Z,83.20
2022-12-15T03:22:13.834Z,83.10
2022-12-15T03:23:13.906Z,82.90
2022-12-15T03:24:13.082Z,82.90
2022-12-15T03:25:13.070Z,83.00
2022-12-15T03:26:13.163Z,83.00
2022-12-15T03:27:13.167Z,82.70
2022-12-15T03:28:13.205Z,82.50
2022-12-15T03:29:13.514Z,82.70
2022-12-15T03:30:13.525Z,82.80
2022-12-15T03:31:13.601Z,82.70
2022-12-15T03:32:13.733Z,82.50
2022-12-15T03:33:14.295Z,82.50
2022-12-15T03:34:14.043Z,82.70
2022-12-15T03:35:13.034Z,82.60
2022-12-15T03:36:18.228Z,82.70
2022-12-15T03:37:13.777Z,82.40
2022-12-15T03:38:13.747Z,82.20
2022-12-15T03:39:14.463Z,82.00
2022-12-15T03:40:13.518Z,81.90
2022-12-15T03:41:13.650Z,81.70
2022-12-15T03:42:14.204Z,82.00
2022-12-15T03:43:13.347Z,82.20
2022-12-15T03:44:13.313Z,82.10
2022-12-15T03:45:13.242Z,82.20
2022-12-15T03:46:13.511Z,82.20
2022-12-15T03:47:13.842Z,82.00
2022-12-15T03:48:13.879Z,81.90
2022-12-15T03:49:14.005Z,81.90
2022-12-15T03:50:13.072Z,82.10
2022-12-15T03:51:18.434Z,82.00
2022-12-15T03:52:14.107Z,82.00
2022-12-15T03:53:13.149Z,81.90
2022-12-15T03:54:14.529Z,81.70
2022-12-15T03:55:13.922Z,81.70
2022-12-15T03:56:13.115Z,81.60
2022-12-15T03:57:13.321Z,81.60
2022-12-15T03:58:13.458Z,81.60
2022-12-15T03:59:13.435Z,81.50
2022-12-15T04:00:13.332Z,81.60
2022-12-15T04:01:13.346Z,81.40
2022-12-15T04:02:13.698Z,81.50
2022-12-15T04:03:13.010Z,81.40
2022-12-15T04:04:13.054Z,81.20
2022-12-15T04:05:13.060Z,81.20
2022-12-15T04:06:13.304Z,81.10
2022-12-15T04:07:13.219Z,81.30
2022-12-15T04:08:15.180Z,81.20
2022-12-15T04:09:13.208Z,80.90
2022-12-15T04:10:13.374Z,80.90
2022-12-15T04:11:13.465Z,80.80
2022-12-15T04:12:13.344Z,81.00
2022-12-15T04:13:13.619Z,80.80
2022-12-15T04:14:13.765Z,80.70
2022-12-15T04:15:13.819Z,80.60
2022-12-15T04:16:19.530Z,80.80
2022-12-15T04:17:13.120Z,80.70
2022-12-15T04:18:13.056Z,80.70
2022-12-15T04:19:13.193Z,80.70
2022-12-15T04:20:13.269Z,80.60
2022-12-15T04:21:13.348Z,80.70
2022-12-15T04:22:17.802Z,80.70
2022-12-15T04:23:13.104Z,80.40
2022-12-15T04:24:13.178Z,80.40
2022-12-15T04:25:13.466Z,80.30
2022-12-15T04:26:13.332Z,80.20
2022-12-15T04:27:13.264Z,80.20
2022-12-15T04:28:13.579Z,79.90
2022-12-15T04:29:13.650Z,80.10
2022-12-15T04:30:31.983Z,80.10
2022-12-15T04:31:13.026Z,80.00
2022-12-15T04:32:13.134Z,80.10
2022-12-15T04:33:13.058Z,79.80
2022-12-15T04:34:13.242Z,79.40
2022-12-15T04:35:13.152Z,79.40
2022-12-15T04:36:12.972Z,79.50
2022-12-15T04:37:28.886Z,79.40
2022-12-15T04:38:12.812Z,79.40
2022-12-15T04:39:13.948Z,79.00
2022-12-15T04:40:12.932Z,78.80
2022-12-15T04:41:12.920Z,79.10
2022-12-15T04:42:13.542Z,79.10
2022-12-15T04:43:13.438Z,79.20
2022-12-15T04:44:13.358Z,79.10
2022-12-15T04:45:18.609Z,79.20
2022-12-15T04:46:13.482Z,79.20
2022-12-15T04:47:26.305Z,79.30
2022-12-15T04:48:13.167Z,79.40
2022-12-15T04:49:13.220Z,79.10
2022-12-15T04:50:13.202Z,78.70
2022-12-15T04:51:35.449Z,79.40
2022-12-15T04:52:13.789Z,78.90
2022-12-15T04:53:13.852Z,79.00
2022-12-15T04:54:41.072Z,79.00
2022-12-15T04:55:13.312Z,78.90
2022-12-15T04:56:18.219Z,78.40
2022-12-15T04:57:14.460Z,78.30
2022-12-15T04:58:13.623Z,78.40
2022-12-15T04:59:14.389Z,78.50
2022-12-15T05:00:13.539Z,78.30
2022-12-15T05:01:13.523Z,78.20
2022-12-15T05:02:13.698Z,78.10
2022-12-15T05:03:18.109Z,78.40
2022-12-15T05:04:14.725Z,78.30
2022-12-15T05:05:13.755Z,78.50
2022-12-15T05:06:13.879Z,78.80
2022-12-15T05:07:13.538Z,79.40
2022-12-15T05:08:13.907Z,79.70
2022-12-15T05:09:13.178Z,79.50
2022-12-15T05:10:15.263Z,79.70
2022-12-15T05:11:13.408Z,79.70
2022-12-15T05:12:13.927Z,79.50
2022-12-15T05:13:13.162Z,79.50
2022-12-15T05:14:13.160Z,79.40
2022-12-15T05:15:13.387Z,79.50
2022-12-15T05:16:15.069Z,79.60
2022-12-15T05:17:13.706Z,80.00
2022-12-15T05:18:15.496Z,80.00
2022-12-15T05:19:13.910Z,80.10
2022-12-15T05:21:13.023Z,80.00
2022-12-15T05:22:12.962Z,79.80
2022-12-15T05:23:12.984Z,79.60
2022-12-15T05:24:13.326Z,79.70
2022-12-15T05:26:19.139Z,79.70
2022-12-15T05:27:13.497Z,79.70
2022-12-15T05:28:13.587Z,79.60
2022-12-15T05:29:13.496Z,79.50
2022-12-15T05:30:13.798Z,79.30
2022-12-15T05:31:20.035Z,79.20
2022-12-15T05:33:12.900Z,78.70
2022-12-15T05:34:12.848Z,78.50
2022-12-15T05:35:13.978Z,78.80
2022-12-15T05:36:13.146Z,78.90
2022-12-15T05:37:13.509Z,78.90
2022-12-15T05:38:36.110Z,78.80
2022-12-15T05:39:13.349Z,78.90
2022-12-15T05:40:13.418Z,78.40
2022-12-15T05:41:18.648Z,78.20
2022-12-15T05:42:14.248Z,78.10
2022-12-15T05:43:13.502Z,77.90
2022-12-15T05:44:13.753Z,78.00
2022-12-15T05:45:18.973Z,78.00
2022-12-15T05:46:13.125Z,78.10
2022-12-15T05:47:13.464Z,78.20
2022-12-15T05:48:13.419Z,78.20
2022-12-15T05:49:13.340Z,77.90
2022-12-15T05:50:13.327Z,77.70
2022-12-15T05:51:13.336Z,77.60
2022-12-15T05:52:13.739Z,77.50
2022-12-15T05:53:13.955Z,77.30
2022-12-15T05:54:13.207Z,77.00
2022-12-15T05:55:13.510Z,77.30
2022-12-15T05:56:13.494Z,77.50
2022-12-15T05:57:13.471Z,77.20
2022-12-15T05:58:13.421Z,77.00
2022-12-15T05:59:13.345Z,77.20
2022-12-15T06:00:13.539Z,77.00
2022-12-15T06:01:13.553Z,77.10
2022-12-15T06:02:13.846Z,77.40
2022-12-15T06:03:13.048Z,77.40
2022-12-15T06:04:13.369Z,77.50
2022-12-15T06:05:13.580Z,77.70
2022-12-15T06:06:14.856Z,77.50
2022-12-15T06:07:13.841Z,77.60
2022-12-15T06:08:19.062Z,77.70
2022-12-15T06:09:13.104Z,77.70
2022-12-15T06:10:13.098Z,78.00
2022-12-15T06:11:12.986Z,78.00
2022-12-15T06:12:12.864Z,78.20
2022-12-15T06:13:14.188Z,78.20
2022-12-15T06:14:13.321Z,78.60
2022-12-15T06:15:13.282Z,78.40
2022-12-15T06:16:13.261Z,78.50
2022-12-15T06:17:13.457Z,78.40
2022-12-15T06:18:13.439Z,78.50
2022-12-15T06:19:20.681Z,78.60
2022-12-15T06:20:13.674Z,78.90
2022-12-15T06:21:13.621Z,78.80
2022-12-15T06:22:18.615Z,78.60
2022-12-15T06:23:13.777Z,78.20
2022-12-15T06:24:13.965Z,78.50
2022-12-15T06:25:12.940Z,78.70
2022-12-15T06:26:13.187Z,78.40
2022-12-15T06:27:13.279Z,78.60
2022-12-15T06:28:13.376Z,78.90
2022-12-15T06:29:13.439Z,79.10
2022-12-15T06:30:13.557Z,79.10
2022-12-15T06:31:13.557Z,78.90
2022-12-15T06:32:57.875Z,79.30
2022-12-15T06:33:13.756Z,79.30
2022-12-15T06:34:13.700Z,79.40
2022-12-15T06:35:13.700Z,79.20
2022-12-15T06:36:13.600Z,79.00
2022-12-15T06:37:13.713Z,78.90
2022-12-15T06:38:13.739Z,79.10
2022-12-15T06:39:14.298Z,78.90
2022-12-15T06:40:13.361Z,78.90
2022-12-15T06:41:13.444Z,78.70
2022-12-15T06:42:13.459Z,78.70
2022-12-15T06:43:13.392Z,78.80
2022-12-15T06:44:13.495Z,78.80
2022-12-15T06:45:13.558Z,78.80
2022-12-15T06:46:13.632Z,79.00
2022-12-15T06:47:14.144Z,79.00
2022-12-15T06:48:13.129Z,79.00
2022-12-15T06:49:13.028Z,79.00
2022-12-15T06:50:12.975Z,79.00
2022-12-15T06:51:16.747Z,79.00
2022-12-15T06:52:13.530Z,79.00
2022-12-15T06:53:13.409Z,78.90
2022-12-15T06:54:13.379Z,78.80
2022-12-15T06:55:13.448Z,78.70
2022-12-15T06:56:13.473Z,78.90
2022-12-15T06:57:13.700Z,78.70
2022-12-15T06:58:13.687Z,78.60
2022-12-15T06:59:13.695Z,78.30
2022-12-15T07:00:13.990Z,78.40
2022-12-15T07:01:12.991Z,78.10
2022-12-15T07:02:13.177Z,77.90
2022-12-15T07:03:13.485Z,78.00
2022-12-15T07:04:13.739Z,77.90
2022-12-15T07:05:13.980Z,77.90
2022-12-15T07:06:13.032Z,77.80
2022-12-15T07:07:13.151Z,77.70
2022-12-15T07:08:13.106Z,77.50
2022-12-15T07:09:13.202Z,77.30
2022-12-15T07:10:23.510Z,77.50
2022-12-15T07:11:13.437Z,77.50
2022-12-15T07:13:13.222Z,77.20
2022-12-15T07:14:13.183Z,77.10
2022-12-15T07:15:18.081Z,77.20
2022-12-15T07:16:13.432Z,77.10
2022-12-15T07:17:13.631Z,77.00
2022-12-15T07:18:13.705Z,77.10
2022-12-15T07:19:13.849Z,76.90
2022-12-15T07:20:13.936Z,76.60
2022-12-15T07:21:13.125Z,76.30
2022-12-15T07:22:13.077Z,76.30
2022-12-15T07:23:13.184Z,76.20
2022-12-15T07:24:13.211Z,76.20
2022-12-15T07:25:13.171Z,76.50
2022-12-15T07:26:13.176Z,76.60
2022-12-15T07:27:13.384Z,76.40
2022-12-15T07:28:13.680Z,76.20
2022-12-15T07:29:18.140Z,75.90
2022-12-15T07:30:35.279Z,75.80
2022-12-15T07:31:13.881Z,76.10
2022-12-15T07:32:13.366Z,75.80
2022-12-15T07:33:13.362Z,75.70
2022-12-15T07:34:13.208Z,76.10
2022-12-15T07:35:13.139Z,76.20
2022-12-15T07:36:13.080Z,76.10
2022-12-15T07:37:12.921Z,76.20
2022-12-15T07:38:13.335Z,75.90
2022-12-15T07:39:13.534Z,76.00
2022-12-15T07:40:13.891Z,75.90
2022-12-15T07:41:12.987Z,75.70
2022-12-15T07:42:13.056Z,75.90
2022-12-15T07:43:13.067Z,75.80
2022-12-15T07:44:13.331Z,76.00
2022-12-15T07:46:13.650Z,76.30
2022-12-15T07:47:14.421Z,76.50
2022-12-15T07:48:38.517Z,76.60
2022-12-15T07:49:20.545Z,76.70
2022-12-15T07:50:13.868Z,76.60
2022-12-15T07:51:19.356Z,76.40
2022-12-15T07:52:45.336Z,75.90
2022-12-15T07:53:13.239Z,75.90
2022-12-15T07:54:24.545Z,76.00
2022-12-15T07:55:13.576Z,75.90
2022-12-15T07:56:17.761Z,75.70
2022-12-15T07:57:13.741Z,75.70
2022-12-15T07:58:36.166Z,75.60
2022-12-15T07:59:13.289Z,75.40
2022-12-15T08:00:13.589Z,75.50
2022-12-15T08:01:13.554Z,75.60
2022-12-15T08:02:43.859Z,75.70
2022-12-15T08:03:13.803Z,75.60
2022-12-15T08:04:14.137Z,75.50
2022-12-15T08:05:13.233Z,75.80
2022-12-15T08:06:13.544Z,75.80
2022-12-15T08:07:13.646Z,75.80
2022-12-15T08:08:15.406Z,75.60
2022-12-15T08:09:13.862Z,75.60
2022-12-15T08:10:13.859Z,75.60
2022-12-15T08:11:13.781Z,75.20
2022-12-15T08:12:13.684Z,75.00
2022-12-15T08:13:31.424Z,75.10
2022-12-15T08:14:17.630Z,74.90
2022-12-15T08:15:13.267Z,74.90
2022-12-15T08:16:13.200Z,75.00
2022-12-15T08:17:23.152Z,75.00
2022-12-15T08:18:13.287Z,74.60
2022-12-15T08:19:31.206Z,74.30
2022-12-15T08:20:13.168Z,74.30
2022-12-15T08:21:13.132Z,74.30
2022-12-15T08:22:13.374Z,74.00
2022-12-15T08:23:13.562Z,73.90
2022-12-15T08:24:13.949Z,74.20
2022-12-15T08:25:37.857Z,74.30
2022-12-15T08:26:13.779Z,74.20
2022-12-15T08:27:32.669Z,74.40
2022-12-15T08:28:13.793Z,74.40
2022-12-15T08:29:50.153Z,74.50
2022-12-15T08:30:13.933Z,74.60
2022-12-15T08:31:18.039Z,74.50
2022-12-15T08:32:13.169Z,74.40
2022-12-15T08:33:13.160Z,74.50
2022-12-15T08:35:39.036Z,74.70
2022-12-15T08:36:45.875Z,74.60
2022-12-15T08:37:14.213Z,74.40
2022-12-15T08:38:13.228Z,74.00
2022-12-15T08:39:13.375Z,73.70
2022-12-15T08:40:13.584Z,73.60
2022-12-15T08:41:20.265Z,73.70
2022-12-15T08:42:13.804Z,73.90
2022-12-15T08:43:13.957Z,73.70
2022-12-15T08:44:13.814Z,73.60
2022-12-15T08:45:13.892Z,73.60
2022-12-15T08:46:13.209Z,73.30
2022-12-15T08:47:13.522Z,73.20
2022-12-15T08:48:13.430Z,73.10
2022-12-15T08:49:23.587Z,72.80
2022-12-15T08:50:43.239Z,72.50
2022-12-15T08:51:13.835Z,72.50
2022-12-15T08:52:14.144Z,72.40
2022-12-15T08:53:39.144Z,72.50
2022-12-15T08:54:13.479Z,72.30
2022-12-15T08:55:16.781Z,72.30
2022-12-15T08:56:14.042Z,72.10
2022-12-15T08:57:13.257Z,72.10
2022-12-15T08:58:13.319Z,72.30
2022-12-15T08:59:13.270Z,72.00
2022-12-15T09:00:13.281Z,72.10
2022-12-15T09:01:17.478Z,71.80
2022-12-15T09:02:13.490Z,71.80
2022-12-15T09:03:14.462Z,71.50
2022-12-15T09:04:13.681Z,71.50
2022-12-15T09:05:13.800Z,71.20
2022-12-15T09:06:14.175Z,71.50
2022-12-15T09:07:14.012Z,71.90
2022-12-15T09:08:13.130Z,71.50
2022-12-15T09:09:13.173Z,71.30
2022-12-15T09:10:13.079Z,71.30
2022-12-15T09:11:13.095Z,71.00
2022-12-15T09:12:13.736Z,71.10
2022-12-15T09:13:14.054Z,71.00
2022-12-15T09:14:13.141Z,70.90
2022-12-15T09:15:13.315Z,70.70
2022-12-15T09:16:13.849Z,70.20
2022-12-15T09:17:14.252Z,70.40
2022-12-15T09:18:13.204Z,70.80
2022-12-15T09:19:13.171Z,71.30
2022-12-15T09:20:17.492Z,71.00
2022-12-15T09:21:12.832Z,70.50
2022-12-15T09:22:14.215Z,70.50
2022-12-15T09:23:13.100Z,69.70
2022-12-15T09:24:17.699Z,69.60
2022-12-15T09:25:13.329Z,69.70
2022-12-15T09:26:13.559Z,69.50
2022-12-15T09:27:13.794Z,69.10
2022-12-15T09:28:13.783Z,68.90
2022-12-15T09:29:14.155Z,68.80
2022-12-15T09:30:13.496Z,68.50
2022-12-15T09:31:13.459Z,67.90
2022-12-15T09:32:14.395Z,67.60
2022-12-15T09:33:13.601Z,67.30
2022-12-15T09:34:13.575Z,67.40
2022-12-15T09:35:13.723Z,66.90
2022-12-15T09:36:14.264Z,66.10
2022-12-15T09:37:13.562Z,64.90
2022-12-15T09:38:13.530Z,62.10
2022-12-15T09:39:13.552Z,59.70
2022-12-15T09:40:13.756Z,57.40
2022-12-15T09:41:13.751Z,54.70
2022-12-15T09:42:13.638Z,54.90
2022-12-15T09:43:33.916Z,56.90
2022-12-15T09:44:12.993Z,55.30
2022-12-15T09:45:12.979Z,54.30
2022-12-15T09:46:12.985Z,55.20
2022-12-15T09:47:13.019Z,55.00
2022-12-15T09:48:13.215Z,56.10
2022-12-15T09:49:13.343Z,55.20
2022-12-15T09:50:13.746Z,55.10
2022-12-15T09:51:13.688Z,54.00
2022-12-15T09:52:14.660Z,53.50
2022-12-15T09:53:45.688Z,53.40
2022-12-15T09:54:13.542Z,53.00
2022-12-15T09:55:13.786Z,52.20
2022-12-15T09:56:12.850Z,51.70
2022-12-15T09:57:14.012Z,51.70
2022-12-15T09:58:12.938Z,50.80
2022-12-15T09:59:12.967Z,51.20
2022-12-15T10:00:12.909Z,50.90
2022-12-15T10:01:13.160Z,52.70
2022-12-15T10:02:13.375Z,52.20
2022-12-15T10:03:13.920Z,51.80
2022-12-15T10:04:13.010Z,53.40
2022-12-15T10:05:13.347Z,52.90
2022-12-15T10:06:18.970Z,52.80
2022-12-15T10:07:13.031Z,51.00
2022-12-15T10:08:13.363Z,48.70
2022-12-15T10:09:13.307Z,49.10
2022-12-15T10:10:13.381Z,50.00
2022-12-15T10:11:14.557Z,49.10
2022-12-15T10:12:13.671Z,49.50
2022-12-15T10:13:14.233Z,49.10
2022-12-15T10:14:13.476Z,49.90
2022-12-15T10:15:13.561Z,51.10
2022-12-15T10:16:13.467Z,50.00
2022-12-15T10:17:13.520Z,48.60
2022-12-15T10:18:13.784Z,46.50
2022-12-15T10:19:13.857Z,47.60
2022-12-15T10:20:13.804Z,46.60
2022-12-15T10:21:13.769Z,46.70
2022-12-15T10:22:13.769Z,47.80
2022-12-15T10:23:13.747Z,47.00
2022-12-15T10:24:13.719Z,47.80
2022-12-15T10:25:13.641Z,48.10
2022-12-15T10:26:13.695Z,48.00
2022-12-15T10:27:13.666Z,48.30
2022-12-15T10:28:13.743Z,48.70
2022-12-15T10:29:13.707Z,48.40
2022-12-15T10:30:14.235Z,49.00
2022-12-15T10:31:13.356Z,49.60
2022-12-15T10:32:13.420Z,49.50
2022-12-15T10:33:13.665Z,49.70
2022-12-15T10:34:13.853Z,49.50
2022-12-15T10:35:14.188Z,50.60
2022-12-15T10:36:13.321Z,50.40
2022-12-15T10:37:13.596Z,49.00
2022-12-15T10:38:13.537Z,49.60
2022-12-15T10:39:16.219Z,49.50
2022-12-15T10:40:13.637Z,49.70
2022-12-15T10:41:13.800Z,48.40
2022-12-15T10:42:13.933Z,47.10
2022-12-15T10:43:13.031Z,47.70
2022-12-15T10:44:13.010Z,49.40
2022-12-15T10:45:13.032Z,48.30
2022-12-15T10:46:13.251Z,47.30
2022-12-15T10:47:13.515Z,47.00
2022-12-15T10:48:13.397Z,46.40
2022-12-15T10:49:13.388Z,45.40
2022-12-15T10:50:25.019Z,44.30
2022-12-15T10:51:13.357Z,44.00
2022-12-15T10:52:13.276Z,44.20
2022-12-15T10:53:13.270Z,43.90
2022-12-15T10:54:13.298Z,44.10
2022-12-15T10:55:13.364Z,43.00
2022-12-15T10:56:13.393Z,44.10
2022-12-15T10:57:13.297Z,44.20
2022-12-15T10:58:13.378Z,45.60
2022-12-15T10:59:13.355Z,46.60
2022-12-15T11:00:13.339Z,45.80
2022-12-15T11:01:13.343Z,45.30
2022-12-15T11:02:18.011Z,44.50
2022-12-15T11:03:13.979Z,45.70
2022-12-15T11:04:33.358Z,46.60
2022-12-15T11:05:13.376Z,46.70
2022-12-15T11:06:13.402Z,46.10
2022-12-15T11:07:13.318Z,45.60
2022-12-15T11:08:13.227Z,44.90
2022-12-15T11:09:13.166Z,46.40
2022-12-15T11:10:13.152Z,46.10
2022-12-15T11:11:13.135Z,46.70
2022-12-15T11:12:13.187Z,46.20
2022-12-15T11:13:13.182Z,45.60
2022-12-15T11:14:13.033Z,44.50
2022-12-15T11:15:12.970Z,43.50
2022-12-15T11:16:13.113Z,43.70
2022-12-15T11:17:13.425Z,46.00
2022-12-15T11:18:13.577Z,45.50
2022-12-15T11:19:13.473Z,45.40
2022-12-15T11:20:13.382Z,46.40
2022-12-15T11:21:13.389Z,45.10
2022-12-15T11:22:13.530Z,47.80
2022-12-15T11:23:13.532Z,47.90
2022-12-15T11:24:13.473Z,47.90
2022-12-15T11:25:13.414Z,47.30
2022-12-15T11:26:13.566Z,47.50
2022-12-15T11:27:13.593Z,45.80
2022-12-15T11:28:13.575Z,45.80
2022-12-15T11:29:13.638Z,46.30
2022-12-15T11:30:13.608Z,45.20
2022-12-15T11:31:13.571Z,43.60
2022-12-15T11:32:13.698Z,42.40
2022-12-15T11:33:13.607Z,43.30
2022-12-15T11:34:14.056Z,45.70
2022-12-15T11:35:13.115Z,46.30
2022-12-15T11:36:13.150Z,47.00
2022-12-15T11:37:13.331Z,48.50
2022-12-15T11:38:13.237Z,49.10
2022-12-15T11:39:13.383Z,49.30
2022-12-15T11:40:13.390Z,49.20
2022-12-15T11:41:13.283Z,47.50
2022-12-15T11:42:13.313Z,45.90
2022-12-15T11:43:13.446Z,45.10
2022-12-15T11:44:13.444Z,45.00
2022-12-15T11:45:13.368Z,46.00
2022-12-15T11:46:13.379Z,44.70
2022-12-15T11:47:13.314Z,43.50
2022-12-15T11:48:13.349Z,43.60
2022-12-15T11:49:13.579Z,44.10
2022-12-15T11:50:13.571Z,46.10
2022-12-15T11:51:13.923Z,45.30
2022-12-15T11:52:12.885Z,45.70
2022-12-15T11:53:15.384Z,45.30
2022-12-15T11:54:13.239Z,46.70
2022-12-15T11:55:13.173Z,47.70
2022-12-15T11:56:13.267Z,48.30
2022-12-15T11:57:13.268Z,47.20
2022-12-15T11:58:13.143Z,46.40
2022-12-15T11:59:13.038Z,46.70
2022-12-15T12:00:13.146Z,45.70
2022-12-15T12:01:13.259Z,44.80
2022-12-15T12:02:13.243Z,44.30
2022-12-15T12:03:13.288Z,43.50
2022-12-15T12:04:13.223Z,42.40
2022-12-15T12:05:13.191Z,43.90
2022-12-15T12:06:13.518Z,43.90
2022-12-15T12:07:13.993Z,44.60
2022-12-15T12:08:13.192Z,45.90
2022-12-15T12:09:13.050Z,45.30
2022-12-15T12:10:13.019Z,44.60
2022-12-15T12:11:14.030Z,45.60
2022-12-15T12:12:13.319Z,46.80
2022-12-15T12:13:13.307Z,45.40
2022-12-15T12:14:13.245Z,45.70
2022-12-15T12:15:13.345Z,47.60
2022-12-15T12:16:13.381Z,50.10
2022-12-15T12:17:13.283Z,50.30
2022-12-15T12:18:13.220Z,49.50
2022-12-15T12:19:13.141Z,49.90
2022-12-15T12:20:13.287Z,50.10
2022-12-15T12:21:13.618Z,51.00
2022-12-15T12:22:15.155Z,50.20
2022-12-15T12:23:13.355Z,49.30
2022-12-15T12:24:13.511Z,49.60
2022-12-15T12:25:13.568Z,51.60
2022-12-15T12:26:13.707Z,51.60
2022-12-15T12:27:13.668Z,51.50
2022-12-15T12:28:13.966Z,52.40
2022-12-15T12:29:13.065Z,51.90
2022-12-15T12:30:13.027Z,50.30
2022-12-15T12:31:13.215Z,50.00
2022-12-15T12:32:13.125Z,51.80
2022-12-15T12:33:13.085Z,51.50
2022-12-15T12:34:13.003Z,50.40
2022-12-15T12:35:30.626Z,49.40
2022-12-15T12:36:13.562Z,49.20
2022-12-15T12:37:13.606Z,51.10
2022-12-15T12:38:13.808Z,52.20
2022-12-15T12:39:13.785Z,52.60
2022-12-15T12:40:13.733Z,53.20
2022-12-15T12:41:14.147Z,51.80
2022-12-15T12:42:13.390Z,53.20
2022-12-15T12:43:14.165Z,54.40
2022-12-15T12:44:13.551Z,55.20
2022-12-15T12:45:13.655Z,55.20
2022-12-15T12:46:13.759Z,54.30
2022-12-15T12:47:13.874Z,54.30
2022-12-15T12:48:14.048Z,54.90
2022-12-15T12:49:13.244Z,55.10
2022-12-15T12:50:13.274Z,55.20
2022-12-15T12:51:13.246Z,55.60
2022-12-15T12:52:13.263Z,56.20
2022-12-15T12:53:13.129Z,57.30
2022-12-15T12:54:13.137Z,57.30
2022-12-15T12:55:14.846Z,57.70
2022-12-15T12:56:13.012Z,59.30
2022-12-15T12:57:13.015Z,60.30
2022-12-15T12:58:13.520Z,59.60